sensor_id;sensor_type;location;lat;lon;timestamp;temperature;humidity
24744;DHT22;12844;52.110;5.548;2023-03-14T00:01:51;17.70;57.30
24744;DHT22;12844;52.110;5.548;2023-03-14T00:04:17;17.60;57.30
24744;DHT22;12844;52.110;5.548;2023-03-14T00:06:42;17.60;57.30
24744;DHT22;12844;52.110;5.548;2023-03-14T00:09:08;17.60;57.30
24744;DHT22;12844;52.110;5.548;2023-03-14T00:11:33;17.60;57.30
24744;DHT22;12844;52.110;5.548;2023-03-14T00:13:59;17.60;57.30
24744;DHT22;12844;52.110;5.548;2023-03-14T00:16:26;17.60;57.30
24744;DHT22;12844;52.110;5.548;2023-03-14T00:18:51;17.60;57.30
24744;DHT22;12844;52.110;5.548;2023-03-14T00:21:18;17.60;57.30
24744;DHT22;12844;52.110;5.548;2023-03-14T00:23:43;17.60;57.40
24744;DHT22;12844;52.110;5.548;2023-03-14T00:26:12;17.60;57.30
24744;DHT22;12844;52.110;5.548;2023-03-14T00:28:38;17.60;57.40
24744;DHT22;12844;52.110;5.548;2023-03-14T00:31:05;17.60;57.40
24744;DHT22;12844;52.110;5.548;2023-03-14T00:33:31;17.60;57.40
24744;DHT22;12844;52.110;5.548;2023-03-14T00:36:05;17.50;57.30
24744;DHT22;12844;52.110;5.548;2023-03-14T00:38:32;17.60;57.40
24744;DHT22;12844;52.110;5.548;2023-03-14T00:40:58;17.50;57.30
24744;DHT22;12844;52.110;5.548;2023-03-14T00:43:24;17.60;57.40
24744;DHT22;12844;52.110;5.548;2023-03-14T00:45:50;17.50;57.30
24744;DHT22;12844;52.110;5.548;2023-03-14T00:48:16;17.50;57.30
24744;DHT22;12844;52.110;5.548;2023-03-14T00:50:42;17.50;57.30
24744;DHT22;12844;52.110;5.548;2023-03-14T00:53:08;17.50;57.30
24744;DHT22;12844;52.110;5.548;2023-03-14T00:55:41;17.50;57.30
24744;DHT22;12844;52.110;5.548;2023-03-14T00:58:08;17.50;57.30
24744;DHT22;12844;52.110;5.548;2023-03-14T01:00:34;17.50;57.30
24744;DHT22;12844;52.110;5.548;2023-03-14T01:03:00;17.50;57.30
24744;DHT22;12844;52.110;5.548;2023-03-14T01:05:25;17.50;57.30
24744;DHT22;12844;52.110;5.548;2023-03-14T01:07:51;17.50;57.30
24744;DHT22;12844;52.110;5.548;2023-03-14T01:10:16;17.50;57.30
24744;DHT22;12844;52.110;5.548;2023-03-14T01:12:42;17.50;57.30
24744;DHT22;12844;52.110;5.548;2023-03-14T01:15:08;17.50;57.20
24744;DHT22;12844;52.110;5.548;2023-03-14T01:17:34;17.50;57.20
24744;DHT22;12844;52.110;5.548;2023-03-14T01:20:00;17.50;57.20
24744;DHT22;12844;52.110;5.548;2023-03-14T01:22:26;17.40;57.10
24744;DHT22;12844;52.110;5.548;2023-03-14T01:24:52;17.50;57.10
24744;DHT22;12844;52.110;5.548;2023-03-14T01:27:17;17.50;57.10
24744;DHT22;12844;52.110;5.548;2023-03-14T01:29:43;17.40;57.10
24744;DHT22;12844;52.110;5.548;2023-03-14T01:32:08;17.50;57.20
24744;DHT22;12844;52.110;5.548;2023-03-14T01:34:34;17.50;57.10
24744;DHT22;12844;52.110;5.548;2023-03-14T01:36:59;17.50;57.10
24744;DHT22;12844;52.110;5.548;2023-03-14T01:39:25;17.40;57.10
24744;DHT22;12844;52.110;5.548;2023-03-14T01:41:50;17.40;57.10
24744;DHT22;12844;52.110;5.548;2023-03-14T01:44:16;17.50;57.20
24744;DHT22;12844;52.110;5.548;2023-03-14T01:46:45;17.40;57.10
24744;DHT22;12844;52.110;5.548;2023-03-14T01:49:29;17.40;57.00
24744;DHT22;12844;52.110;5.548;2023-03-14T01:52:11;17.40;57.10
24744;DHT22;12844;52.110;5.548;2023-03-14T01:54:43;17.40;57.10
24744;DHT22;12844;52.110;5.548;2023-03-14T01:57:20;17.40;57.10
24744;DHT22;12844;52.110;5.548;2023-03-14T02:00:12;17.40;57.10
24744;DHT22;12844;52.110;5.548;2023-03-14T02:02:47;17.40;57.10
24744;DHT22;12844;52.110;5.548;2023-03-14T02:05:16;17.40;57.10
24744;DHT22;12844;52.110;5.548;2023-03-14T02:07:54;17.40;57.10
24744;DHT22;12844;52.110;5.548;2023-03-14T02:10:22;17.40;57.10
24744;DHT22;12844;52.110;5.548;2023-03-14T02:12:50;17.40;57.10
24744;DHT22;12844;52.110;5.548;2023-03-14T02:15:17;17.40;57.70
24744;DHT22;12844;52.110;5.548;2023-03-14T02:17:43;17.40;57.10
24744;DHT22;12844;52.110;5.548;2023-03-14T02:20:30;17.40;57.10
24744;DHT22;12844;52.110;5.548;2023-03-14T02:23:00;17.40;57.10
24744;DHT22;12844;52.110;5.548;2023-03-14T02:28:03;17.40;57.00
24744;DHT22;12844;52.110;5.548;2023-03-14T02:30:30;17.40;57.00
24744;DHT22;12844;52.110;5.548;2023-03-14T02:33:15;17.40;57.00
24744;DHT22;12844;52.110;5.548;2023-03-14T02:35:59;17.30;56.90
24744;DHT22;12844;52.110;5.548;2023-03-14T02:38:35;17.40;56.90
24744;DHT22;12844;52.110;5.548;2023-03-14T02:41:02;17.30;56.90
24744;DHT22;12844;52.110;5.548;2023-03-14T02:43:28;17.30;56.90
24744;DHT22;12844;52.110;5.548;2023-03-14T02:45:54;17.30;56.90
24744;DHT22;12844;52.110;5.548;2023-03-14T02:48:29;17.30;56.80
24744;DHT22;12844;52.110;5.548;2023-03-14T02:50:59;17.30;56.80
24744;DHT22;12844;52.110;5.548;2023-03-14T02:53:35;17.30;56.80
24744;DHT22;12844;52.110;5.548;2023-03-14T02:56:02;17.30;56.80
24744;DHT22;12844;52.110;5.548;2023-03-14T02:58:28;17.30;56.80
24744;DHT22;12844;52.110;5.548;2023-03-14T03:00:54;17.30;56.80
24744;DHT22;12844;52.110;5.548;2023-03-14T03:03:19;17.30;56.80
24744;DHT22;12844;52.110;5.548;2023-03-14T03:05:53;17.30;56.70
24744;DHT22;12844;52.110;5.548;2023-03-14T03:08:20;17.30;56.80
24744;DHT22;12844;52.110;5.548;2023-03-14T03:10:47;17.30;56.70
24744;DHT22;12844;52.110;5.548;2023-03-14T03:13:12;17.30;56.70
24744;DHT22;12844;52.110;5.548;2023-03-14T03:15:38;17.30;56.70
24744;DHT22;12844;52.110;5.548;2023-03-14T03:18:04;17.30;56.70
24744;DHT22;12844;52.110;5.548;2023-03-14T03:20:30;17.30;56.70
24744;DHT22;12844;52.110;5.548;2023-03-14T03:22:55;17.30;56.80
24744;DHT22;12844;52.110;5.548;2023-03-14T03:25:21;17.30;56.80
24744;DHT22;12844;52.110;5.548;2023-03-14T03:27:46;17.20;56.70
24744;DHT22;12844;52.110;5.548;2023-03-14T03:30:12;17.20;56.70
24744;DHT22;12844;52.110;5.548;2023-03-14T03:32:38;17.30;56.70
24744;DHT22;12844;52.110;5.548;2023-03-14T03:35:04;17.20;57.20
24744;DHT22;12844;52.110;5.548;2023-03-14T03:37:34;17.20;56.60
24744;DHT22;12844;52.110;5.548;2023-03-14T03:39:59;17.20;56.60
24744;DHT22;12844;52.110;5.548;2023-03-14T03:42:27;17.20;56.60
24744;DHT22;12844;52.110;5.548;2023-03-14T03:44:53;17.20;56.60
24744;DHT22;12844;52.110;5.548;2023-03-14T03:47:18;17.20;56.60
24744;DHT22;12844;52.110;5.548;2023-03-14T03:49:44;17.20;56.70
24744;DHT22;12844;52.110;5.548;2023-03-14T03:52:09;17.20;56.70
24744;DHT22;12844;52.110;5.548;2023-03-14T03:54:35;17.20;56.70
24744;DHT22;12844;52.110;5.548;2023-03-14T03:57:01;17.20;56.70
24744;DHT22;12844;52.110;5.548;2023-03-14T03:59:27;17.20;56.70
24744;DHT22;12844;52.110;5.548;2023-03-14T04:01:52;17.20;56.70
24744;DHT22;12844;52.110;5.548;2023-03-14T04:04:18;17.20;56.70
24744;DHT22;12844;52.110;5.548;2023-03-14T04:06:43;17.20;56.70
24744;DHT22;12844;52.110;5.548;2023-03-14T04:09:10;17.20;56.80
24744;DHT22;12844;52.110;5.548;2023-03-14T04:11:36;17.20;56.80
24744;DHT22;12844;52.110;5.548;2023-03-14T04:14:01;17.20;56.80
24744;DHT22;12844;52.110;5.548;2023-03-14T04:16:27;17.20;56.90
24744;DHT22;12844;52.110;5.548;2023-03-14T04:18:52;17.20;56.90
24744;DHT22;12844;52.110;5.548;2023-03-14T04:21:18;17.20;56.80
24744;DHT22;12844;52.110;5.548;2023-03-14T04:23:44;17.20;56.80
24744;DHT22;12844;52.110;5.548;2023-03-14T04:26:09;17.20;56.70
24744;DHT22;12844;52.110;5.548;2023-03-14T04:28:35;17.20;56.70
24744;DHT22;12844;52.110;5.548;2023-03-14T04:31:22;17.20;56.70
24744;DHT22;12844;52.110;5.548;2023-03-14T04:33:48;17.30;56.70
24744;DHT22;12844;52.110;5.548;2023-03-14T04:36:14;17.20;56.70
24744;DHT22;12844;52.110;5.548;2023-03-14T04:38:40;17.20;56.70
24744;DHT22;12844;52.110;5.548;2023-03-14T04:41:06;17.20;56.70
24744;DHT22;12844;52.110;5.548;2023-03-14T04:43:32;17.30;56.70
24744;DHT22;12844;52.110;5.548;2023-03-14T04:45:58;17.30;56.70
24744;DHT22;12844;52.110;5.548;2023-03-14T04:48:25;17.30;56.70
24744;DHT22;12844;52.110;5.548;2023-03-14T04:50:50;17.30;56.70
24744;DHT22;12844;52.110;5.548;2023-03-14T04:53:17;17.30;56.70
24744;DHT22;12844;52.110;5.548;2023-03-14T04:55:48;17.30;56.60
24744;DHT22;12844;52.110;5.548;2023-03-14T04:58:13;17.30;56.60
24744;DHT22;12844;52.110;5.548;2023-03-14T05:00:40;17.30;56.60
24744;DHT22;12844;52.110;5.548;2023-03-14T05:03:05;17.30;56.60
24744;DHT22;12844;52.110;5.548;2023-03-14T05:05:31;17.30;56.50
24744;DHT22;12844;52.110;5.548;2023-03-14T05:07:56;17.30;56.50
24744;DHT22;12844;52.110;5.548;2023-03-14T05:10:22;17.30;56.50
24744;DHT22;12844;52.110;5.548;2023-03-14T05:12:47;17.30;56.50
24744;DHT22;12844;52.110;5.548;2023-03-14T05:15:13;17.30;56.50
24744;DHT22;12844;52.110;5.548;2023-03-14T05:17:38;17.30;56.50
24744;DHT22;12844;52.110;5.548;2023-03-14T05:20:04;17.30;56.50
24744;DHT22;12844;52.110;5.548;2023-03-14T05:22:34;17.30;56.50
24744;DHT22;12844;52.110;5.548;2023-03-14T05:24:59;17.30;56.50
24744;DHT22;12844;52.110;5.548;2023-03-14T05:27:25;17.30;56.50
24744;DHT22;12844;52.110;5.548;2023-03-14T05:29:50;17.30;56.40
24744;DHT22;12844;52.110;5.548;2023-03-14T05:32:16;17.30;56.40
24744;DHT22;12844;52.110;5.548;2023-03-14T05:34:41;17.30;56.40
24744;DHT22;12844;52.110;5.548;2023-03-14T05:37:07;17.30;56.40
24744;DHT22;12844;52.110;5.548;2023-03-14T05:39:32;17.30;56.40
24744;DHT22;12844;52.110;5.548;2023-03-14T05:41:58;17.30;56.40
24744;DHT22;12844;52.110;5.548;2023-03-14T05:44:23;17.30;56.40
24744;DHT22;12844;52.110;5.548;2023-03-14T05:46:49;17.30;56.40
24744;DHT22;12844;52.110;5.548;2023-03-14T05:49:15;17.30;56.40
24744;DHT22;12844;52.110;5.548;2023-03-14T05:51:40;17.30;56.40
24744;DHT22;12844;52.110;5.548;2023-03-14T05:54:06;17.30;56.40
24744;DHT22;12844;52.110;5.548;2023-03-14T05:56:31;17.30;56.40
24744;DHT22;12844;52.110;5.548;2023-03-14T05:58:57;17.30;56.40
24744;DHT22;12844;52.110;5.548;2023-03-14T06:01:23;17.30;56.40
24744;DHT22;12844;52.110;5.548;2023-03-14T06:03:48;17.30;56.40
24744;DHT22;12844;52.110;5.548;2023-03-14T06:06:13;17.30;56.40
24744;DHT22;12844;52.110;5.548;2023-03-14T06:08:39;17.30;56.40
24744;DHT22;12844;52.110;5.548;2023-03-14T06:11:05;17.30;56.40
24744;DHT22;12844;52.110;5.548;2023-03-14T06:13:30;17.30;56.40
24744;DHT22;12844;52.110;5.548;2023-03-14T06:15:56;17.30;56.40
24744;DHT22;12844;52.110;5.548;2023-03-14T06:18:22;17.30;56.30
24744;DHT22;12844;52.110;5.548;2023-03-14T06:20:47;17.30;56.30
24744;DHT22;12844;52.110;5.548;2023-03-14T06:23:13;17.30;56.30
24744;DHT22;12844;52.110;5.548;2023-03-14T06:25:38;17.30;56.30
24744;DHT22;12844;52.110;5.548;2023-03-14T06:28:04;17.30;56.30
24744;DHT22;12844;52.110;5.548;2023-03-14T06:30:29;17.30;56.30
24744;DHT22;12844;52.110;5.548;2023-03-14T06:32:55;17.30;56.30
24744;DHT22;12844;52.110;5.548;2023-03-14T06:35:21;17.30;56.30
24744;DHT22;12844;52.110;5.548;2023-03-14T06:37:47;17.30;56.30
24744;DHT22;12844;52.110;5.548;2023-03-14T06:40:13;17.30;56.30
24744;DHT22;12844;52.110;5.548;2023-03-14T06:42:44;17.30;56.30
24744;DHT22;12844;52.110;5.548;2023-03-14T06:45:10;17.30;56.30
24744;DHT22;12844;52.110;5.548;2023-03-14T06:47:35;17.30;56.30
24744;DHT22;12844;52.110;5.548;2023-03-14T06:50:02;17.30;56.30
24744;DHT22;12844;52.110;5.548;2023-03-14T06:52:28;17.30;56.30
24744;DHT22;12844;52.110;5.548;2023-03-14T06:54:53;17.30;56.30
24744;DHT22;12844;52.110;5.548;2023-03-14T06:57:19;17.30;56.30
24744;DHT22;12844;52.110;5.548;2023-03-14T06:59:44;17.30;56.30
24744;DHT22;12844;52.110;5.548;2023-03-14T07:02:11;17.30;56.30
24744;DHT22;12844;52.110;5.548;2023-03-14T07:04:37;17.30;56.30
24744;DHT22;12844;52.110;5.548;2023-03-14T07:07:03;17.30;56.30
24744;DHT22;12844;52.110;5.548;2023-03-14T07:09:28;17.30;56.40
24744;DHT22;12844;52.110;5.548;2023-03-14T07:11:54;17.30;56.40
24744;DHT22;12844;52.110;5.548;2023-03-14T07:14:19;17.30;56.40
24744;DHT22;12844;52.110;5.548;2023-03-14T07:16:45;17.30;56.40
24744;DHT22;12844;52.110;5.548;2023-03-14T07:19:10;17.30;56.40
24744;DHT22;12844;52.110;5.548;2023-03-14T07:21:36;17.30;56.40
24744;DHT22;12844;52.110;5.548;2023-03-14T07:24:02;17.30;56.40
24744;DHT22;12844;52.110;5.548;2023-03-14T07:26:27;17.30;56.40
24744;DHT22;12844;52.110;5.548;2023-03-14T07:28:53;17.30;56.40
24744;DHT22;12844;52.110;5.548;2023-03-14T07:31:18;17.30;56.30
24744;DHT22;12844;52.110;5.548;2023-03-14T07:33:44;17.30;56.40
24744;DHT22;12844;52.110;5.548;2023-03-14T07:36:10;17.30;56.40
24744;DHT22;12844;52.110;5.548;2023-03-14T07:38:35;17.30;56.40
24744;DHT22;12844;52.110;5.548;2023-03-14T07:41:03;17.30;56.40
24744;DHT22;12844;52.110;5.548;2023-03-14T07:43:28;17.30;56.30
24744;DHT22;12844;52.110;5.548;2023-03-14T07:45:54;17.30;56.40
24744;DHT22;12844;52.110;5.548;2023-03-14T07:48:19;17.30;56.60
24744;DHT22;12844;52.110;5.548;2023-03-14T07:50:49;17.30;56.90
24744;DHT22;12844;52.110;5.548;2023-03-14T07:53:15;17.40;57.20
24744;DHT22;12844;52.110;5.548;2023-03-14T07:55:40;17.40;57.40
24744;DHT22;12844;52.110;5.548;2023-03-14T07:58:06;17.50;57.60
24744;DHT22;12844;52.110;5.548;2023-03-14T08:00:31;17.70;57.70
24744;DHT22;12844;52.110;5.548;2023-03-14T08:02:57;17.90;57.70
24744;DHT22;12844;52.110;5.548;2023-03-14T08:05:23;18.00;57.70
24744;DHT22;12844;52.110;5.548;2023-03-14T08:07:49;18.20;57.70
24744;DHT22;12844;52.110;5.548;2023-03-14T08:10:14;18.30;57.50
24744;DHT22;12844;52.110;5.548;2023-03-14T08:12:50;18.40;57.40
24744;DHT22;12844;52.110;5.548;2023-03-14T08:15:16;18.60;57.20
24744;DHT22;12844;52.110;5.548;2023-03-14T08:17:42;18.70;57.10
24744;DHT22;12844;52.110;5.548;2023-03-14T08:20:08;18.80;56.90
24744;DHT22;12844;52.110;5.548;2023-03-14T08:22:36;18.90;56.80
24744;DHT22;12844;52.110;5.548;2023-03-14T08:25:01;18.90;56.70
24744;DHT22;12844;52.110;5.548;2023-03-14T08:27:27;18.90;56.50
24744;DHT22;12844;52.110;5.548;2023-03-14T08:29:52;19.00;56.40
24744;DHT22;12844;52.110;5.548;2023-03-14T08:32:18;19.00;56.80
24744;DHT22;12844;52.110;5.548;2023-03-14T08:34:45;19.10;56.00
24744;DHT22;12844;52.110;5.548;2023-03-14T08:37:11;19.10;55.90
24744;DHT22;12844;52.110;5.548;2023-03-14T08:39:36;19.10;55.80
24744;DHT22;12844;52.110;5.548;2023-03-14T08:42:02;19.10;55.60
24744;DHT22;12844;52.110;5.548;2023-03-14T08:44:27;19.10;55.50
24744;DHT22;12844;52.110;5.548;2023-03-14T08:46:53;19.20;55.50
24744;DHT22;12844;52.110;5.548;2023-03-14T08:49:18;19.10;55.30
24744;DHT22;12844;52.110;5.548;2023-03-14T10:01:39;19.30;55.50
24744;DHT22;12844;52.110;5.548;2023-03-14T10:04:10;19.30;55.60
24744;DHT22;12844;52.110;5.548;2023-03-14T10:06:38;19.30;55.60
24744;DHT22;12844;52.110;5.548;2023-03-14T10:09:04;19.30;55.60
24744;DHT22;12844;52.110;5.548;2023-03-14T10:11:31;19.30;55.70
24744;DHT22;12844;52.110;5.548;2023-03-14T10:14:10;19.20;55.70
24744;DHT22;12844;52.110;5.548;2023-03-14T10:16:43;19.30;55.80
24744;DHT22;12844;52.110;5.548;2023-03-14T10:19:16;19.20;55.80
24744;DHT22;12844;52.110;5.548;2023-03-14T10:21:51;19.20;55.90
24744;DHT22;12844;52.110;5.548;2023-03-14T10:26:55;19.30;56.10
24744;DHT22;12844;52.110;5.548;2023-03-14T10:29:23;19.20;56.00
24744;DHT22;12844;52.110;5.548;2023-03-14T10:31:52;19.20;56.20
24744;DHT22;12844;52.110;5.548;2023-03-14T10:34:26;19.20;56.20
24744;DHT22;12844;52.110;5.548;2023-03-14T10:36:53;19.20;57.00
24744;DHT22;12844;52.110;5.548;2023-03-14T10:39:40;19.20;56.40
24744;DHT22;12844;52.110;5.548;2023-03-14T10:42:16;19.20;56.30
24744;DHT22;12844;52.110;5.548;2023-03-14T10:44:44;19.20;56.40
24744;DHT22;12844;52.110;5.548;2023-03-14T10:47:18;19.20;56.40
24744;DHT22;12844;52.110;5.548;2023-03-14T10:49:44;19.30;56.40
24744;DHT22;12844;52.110;5.548;2023-03-14T10:54:47;19.30;56.00
24744;DHT22;12844;52.110;5.548;2023-03-14T10:57:14;19.30;56.10
24744;DHT22;12844;52.110;5.548;2023-03-14T10:59:41;19.30;56.10
24744;DHT22;12844;52.110;5.548;2023-03-14T11:05:15;19.20;55.90
24744;DHT22;12844;52.110;5.548;2023-03-14T11:07:44;19.20;55.90
24744;DHT22;12844;52.110;5.548;2023-03-14T11:13:26;19.10;55.90
24744;DHT22;12844;52.110;5.548;2023-03-14T11:22:00;19.00;55.90
24744;DHT22;12844;52.110;5.548;2023-03-14T11:27:35;18.90;56.00
24744;DHT22;12844;52.110;5.548;2023-03-14T11:30:18;18.90;56.00
24744;DHT22;12844;52.110;5.548;2023-03-14T11:33:28;19.00;56.00
24744;DHT22;12844;52.110;5.548;2023-03-14T11:35:47;19.00;55.90
24744;DHT22;12844;52.110;5.548;2023-03-14T11:40:54;19.20;55.70
24744;DHT22;12844;52.110;5.548;2023-03-14T11:43:39;19.20;55.40
24744;DHT22;12844;52.110;5.548;2023-03-14T11:51:39;19.30;55.30
24744;DHT22;12844;52.110;5.548;2023-03-14T11:54:22;19.40;55.20
24744;DHT22;12844;52.110;5.548;2023-03-14T11:56:57;19.40;55.10
24744;DHT22;12844;52.110;5.548;2023-03-14T12:02:13;19.50;55.20
24744;DHT22;12844;52.110;5.548;2023-03-14T12:07:33;19.60;55.10
24744;DHT22;12844;52.110;5.548;2023-03-14T12:10:03;19.60;54.90
24744;DHT22;12844;52.110;5.548;2023-03-14T12:12:29;19.60;54.90
24744;DHT22;12844;52.110;5.548;2023-03-14T12:15:00;19.60;54.80
24744;DHT22;12844;52.110;5.548;2023-03-14T12:17:38;19.60;54.70
24744;DHT22;12844;52.110;5.548;2023-03-14T12:22:52;19.70;54.60
24744;DHT22;12844;52.110;5.548;2023-03-14T12:25:27;19.80;54.60
24744;DHT22;12844;52.110;5.548;2023-03-14T12:30:28;19.80;54.50
24744;DHT22;12844;52.110;5.548;2023-03-14T12:35:36;19.80;54.40
24744;DHT22;12844;52.110;5.548;2023-03-14T12:38:06;19.80;54.40
24744;DHT22;12844;52.110;5.548;2023-03-14T12:40:39;19.90;54.40
24744;DHT22;12844;52.110;5.548;2023-03-14T12:43:30;19.90;54.40
24744;DHT22;12844;52.110;5.548;2023-03-14T12:51:43;19.80;54.60
24744;DHT22;12844;52.110;5.548;2023-03-14T12:54:19;19.80;54.70
24744;DHT22;12844;52.110;5.548;2023-03-14T12:59:37;19.70;54.80
24744;DHT22;12844;52.110;5.548;2023-03-14T13:10:28;19.70;54.70
24744;DHT22;12844;52.110;5.548;2023-03-14T13:15:43;19.70;54.90
24744;DHT22;12844;52.110;5.548;2023-03-14T13:18:27;19.70;55.00
24744;DHT22;12844;52.110;5.548;2023-03-14T13:21:01;19.70;55.00
24744;DHT22;12844;52.110;5.548;2023-03-14T13:23:31;19.70;55.10
24744;DHT22;12844;52.110;5.548;2023-03-14T13:25:58;19.60;55.10
24744;DHT22;12844;52.110;5.548;2023-03-14T13:28:24;19.70;55.30
24744;DHT22;12844;52.110;5.548;2023-03-14T13:30:55;19.70;55.30
24744;DHT22;12844;52.110;5.548;2023-03-14T13:33:23;19.70;55.30
24744;DHT22;12844;52.110;5.548;2023-03-14T13:35:55;19.70;55.30
24744;DHT22;12844;52.110;5.548;2023-03-14T13:38:26;19.70;55.30
24744;DHT22;12844;52.110;5.548;2023-03-14T13:40:55;19.70;55.30
24744;DHT22;12844;52.110;5.548;2023-03-14T13:43:40;19.80;55.30
24744;DHT22;12844;52.110;5.548;2023-03-14T13:46:15;19.70;55.30
24744;DHT22;12844;52.110;5.548;2023-03-14T13:48:46;19.80;55.40
24744;DHT22;12844;52.110;5.548;2023-03-14T13:51:14;19.80;55.40
24744;DHT22;12844;52.110;5.548;2023-03-14T13:53:52;19.80;55.40
24744;DHT22;12844;52.110;5.548;2023-03-14T13:56:20;19.80;55.40
24744;DHT22;12844;52.110;5.548;2023-03-14T13:58:46;19.80;55.90
24744;DHT22;12844;52.110;5.548;2023-03-14T14:01:32;19.80;55.20
24744;DHT22;12844;52.110;5.548;2023-03-14T14:04:06;19.80;55.10
24744;DHT22;12844;52.110;5.548;2023-03-14T14:06:38;19.80;55.10
24744;DHT22;12844;52.110;5.548;2023-03-14T14:09:12;19.80;55.30
24744;DHT22;12844;52.110;5.548;2023-03-14T14:14:43;19.80;55.40
24744;DHT22;12844;52.110;5.548;2023-03-14T14:17:57;19.90;55.50
24744;DHT22;12844;52.110;5.548;2023-03-14T14:20:05;19.90;55.50
24744;DHT22;12844;52.110;5.548;2023-03-14T14:22:32;20.00;55.70
24744;DHT22;12844;52.110;5.548;2023-03-14T14:24:59;20.00;55.50
24744;DHT22;12844;52.110;5.548;2023-03-14T14:32:46;20.00;55.80
24744;DHT22;12844;52.110;5.548;2023-03-14T14:35:33;20.00;55.90
24744;DHT22;12844;52.110;5.548;2023-03-14T14:37:59;19.90;55.80
24744;DHT22;12844;52.110;5.548;2023-03-14T14:40:27;19.90;55.80
24744;DHT22;12844;52.110;5.548;2023-03-14T14:42:53;19.90;56.00
24744;DHT22;12844;52.110;5.548;2023-03-14T14:45:24;19.90;56.10
24744;DHT22;12844;52.110;5.548;2023-03-14T14:50:30;19.90;56.10
24744;DHT22;12844;52.110;5.548;2023-03-14T14:52:57;19.80;56.10
24744;DHT22;12844;52.110;5.548;2023-03-14T14:55:39;19.80;56.00
24744;DHT22;12844;52.110;5.548;2023-03-14T14:58:20;19.80;55.90
24744;DHT22;12844;52.110;5.548;2023-03-14T15:01:21;19.80;56.10
24744;DHT22;12844;52.110;5.548;2023-03-14T15:03:52;19.70;56.20
24744;DHT22;12844;52.110;5.548;2023-03-14T15:06:18;19.70;56.60
24744;DHT22;12844;52.110;5.548;2023-03-14T15:08:46;19.60;56.60
24744;DHT22;12844;52.110;5.548;2023-03-14T15:11:20;19.60;56.80
24744;DHT22;12844;52.110;5.548;2023-03-14T15:13:49;19.60;56.90
24744;DHT22;12844;52.110;5.548;2023-03-14T15:16:20;19.50;57.00
24744;DHT22;12844;52.110;5.548;2023-03-14T15:18:54;19.50;56.90
24744;DHT22;12844;52.110;5.548;2023-03-14T15:21:21;19.50;56.90
24744;DHT22;12844;52.110;5.548;2023-03-14T15:23:47;19.40;57.20
24744;DHT22;12844;52.110;5.548;2023-03-14T15:26:22;19.50;57.20
24744;DHT22;12844;52.110;5.548;2023-03-14T15:28:48;19.40;57.20
24744;DHT22;12844;52.110;5.548;2023-03-14T15:31:14;19.40;57.90
24744;DHT22;12844;52.110;5.548;2023-03-14T15:33:41;19.40;57.20
24744;DHT22;12844;52.110;5.548;2023-03-14T15:36:21;19.40;57.10
24744;DHT22;12844;52.110;5.548;2023-03-14T15:38:48;19.40;57.20
24744;DHT22;12844;52.110;5.548;2023-03-14T15:41:13;19.30;57.20
24744;DHT22;12844;52.110;5.548;2023-03-14T15:43:40;19.30;57.10
24744;DHT22;12844;52.110;5.548;2023-03-14T15:46:09;19.30;57.20
24744;DHT22;12844;52.110;5.548;2023-03-14T15:48:34;19.30;57.10
24744;DHT22;12844;52.110;5.548;2023-03-14T15:51:00;19.30;57.10
24744;DHT22;12844;52.110;5.548;2023-03-14T15:53:25;19.30;56.80
24744;DHT22;12844;52.110;5.548;2023-03-14T15:55:51;19.40;56.60
24744;DHT22;12844;52.110;5.548;2023-03-14T15:58:19;19.40;56.80
24744;DHT22;12844;52.110;5.548;2023-03-14T16:00:44;19.40;56.80
24744;DHT22;12844;52.110;5.548;2023-03-14T16:03:10;19.40;56.70
24744;DHT22;12844;52.110;5.548;2023-03-14T16:05:38;19.40;56.80
24744;DHT22;12844;52.110;5.548;2023-03-14T16:08:03;19.40;56.70
24744;DHT22;12844;52.110;5.548;2023-03-14T16:10:30;19.40;56.50
24744;DHT22;12844;52.110;5.548;2023-03-14T16:12:55;19.40;56.50
24744;DHT22;12844;52.110;5.548;2023-03-14T16:15:21;19.40;56.50
24744;DHT22;12844;52.110;5.548;2023-03-14T16:17:46;19.40;56.50
24744;DHT22;12844;52.110;5.548;2023-03-14T16:20:12;19.40;56.60
24744;DHT22;12844;52.110;5.548;2023-03-14T16:22:38;19.40;56.50
24744;DHT22;12844;52.110;5.548;2023-03-14T16:25:05;19.40;56.60
24744;DHT22;12844;52.110;5.548;2023-03-14T16:27:30;19.40;57.30
24744;DHT22;12844;52.110;5.548;2023-03-14T16:29:57;19.40;56.60
24744;DHT22;12844;52.110;5.548;2023-03-14T16:32:24;19.40;56.60
24744;DHT22;12844;52.110;5.548;2023-03-14T16:34:50;19.40;56.70
24744;DHT22;12844;52.110;5.548;2023-03-14T16:37:16;19.40;56.60
24744;DHT22;12844;52.110;5.548;2023-03-14T16:39:42;19.40;56.70
24744;DHT22;12844;52.110;5.548;2023-03-14T16:42:07;19.40;56.70
24744;DHT22;12844;52.110;5.548;2023-03-14T16:44:33;19.40;56.60
24744;DHT22;12844;52.110;5.548;2023-03-14T16:46:58;19.40;56.70
24744;DHT22;12844;52.110;5.548;2023-03-14T16:49:24;19.40;56.70
24744;DHT22;12844;52.110;5.548;2023-03-14T16:51:49;19.40;56.80
24744;DHT22;12844;52.110;5.548;2023-03-14T16:54:15;19.40;56.80
24744;DHT22;12844;52.110;5.548;2023-03-14T16:56:40;19.40;56.70
24744;DHT22;12844;52.110;5.548;2023-03-14T16:59:06;19.40;56.80
24744;DHT22;12844;52.110;5.548;2023-03-14T17:01:32;19.40;56.70
24744;DHT22;12844;52.110;5.548;2023-03-14T17:03:57;19.40;56.70
24744;DHT22;12844;52.110;5.548;2023-03-14T17:06:27;19.40;56.70
24744;DHT22;12844;52.110;5.548;2023-03-14T17:08:54;19.40;56.70
24744;DHT22;12844;52.110;5.548;2023-03-14T17:11:19;19.40;57.00
24744;DHT22;12844;52.110;5.548;2023-03-14T17:13:46;19.50;57.00
24744;DHT22;12844;52.110;5.548;2023-03-14T17:16:12;19.50;56.90
24744;DHT22;12844;52.110;5.548;2023-03-14T17:18:37;19.50;56.70
24744;DHT22;12844;52.110;5.548;2023-03-14T17:21:04;19.50;56.60
24744;DHT22;12844;52.110;5.548;2023-03-14T17:23:30;19.50;56.50
24744;DHT22;12844;52.110;5.548;2023-03-14T17:25:56;19.50;56.50
24744;DHT22;12844;52.110;5.548;2023-03-14T17:28:23;19.50;56.50
24744;DHT22;12844;52.110;5.548;2023-03-14T17:30:49;19.50;56.50
24744;DHT22;12844;52.110;5.548;2023-03-14T17:33:15;19.50;56.40
24744;DHT22;12844;52.110;5.548;2023-03-14T17:35:44;19.50;56.40
24744;DHT22;12844;52.110;5.548;2023-03-14T17:38:09;19.50;56.50
24744;DHT22;12844;52.110;5.548;2023-03-14T17:40:35;19.50;56.50
24744;DHT22;12844;52.110;5.548;2023-03-14T17:43:00;19.50;56.60
24744;DHT22;12844;52.110;5.548;2023-03-14T17:45:26;19.50;56.40
24744;DHT22;12844;52.110;5.548;2023-03-14T17:47:51;19.50;56.50
24744;DHT22;12844;52.110;5.548;2023-03-14T17:50:18;19.40;56.40
24744;DHT22;12844;52.110;5.548;2023-03-14T17:52:43;19.40;56.30
24744;DHT22;12844;52.110;5.548;2023-03-14T17:55:09;19.60;56.20
24744;DHT22;12844;52.110;5.548;2023-03-14T17:57:36;19.60;56.10
24744;DHT22;12844;52.110;5.548;2023-03-14T18:00:09;19.70;55.80
24744;DHT22;12844;52.110;5.548;2023-03-14T18:02:35;19.60;55.80